Tawau Airport Tawau MY
ICAO: WBKW
IATA:
Category: Medium
Scheduled Services:

Elevation: 57 ft
TransAlt. 11000 ft.

Airport Communications:
APP:123.55
GND:121.9
TWR:122.5

WBKW Zoom In..

Runways:

(A) RW 06 length 8809 ft width 154 ft
---- / hdg 58

(B) RW 24 length 8809 ft width 154 ft
ILS 111.30 / hdg 238

Location; WBKW
Day. 11 / Time. 19.00 Zulu
* QNH: 1009
* Temperature: 24° c. 75.2°f.
* Wind from: 000° Speed 00 kn.
Dewpoint: 24° c.
Visibility: 10 km or more.
Clouds: Few 1600 ft.

WBKW 111900Z 00000KT 9999 FEW016 24/24 Q1009

Going to: --> -->


Wind - Calm.

 
 
jpsmedia worldairports.se 2020   terms of use